sensor_id;sensor_type;location;lat;lon;timestamp;pressure;altitude;pressure_sealevel;temperature;humidity
13414;BME280;6778;48.136;11.386;2022-12-18T00:01:36;96323.38;;;-2.85;84.92
13414;BME280;6778;48.136;11.386;2022-12-18T00:04:07;96321.66;;;-2.84;85.04
13414;BME280;6778;48.136;11.386;2022-12-18T00:06:41;96314.28;;;-2.89;85.56
13414;BME280;6778;48.136;11.386;2022-12-18T00:09:13;96313.03;;;-2.83;85.55
13414;BME280;6778;48.136;11.386;2022-12-18T00:11:42;96316.84;;;-2.89;85.67
13414;BME280;6778;48.136;11.386;2022-12-18T00:14:12;96320.53;;;-2.93;85.91
13414;BME280;6778;48.136;11.386;2022-12-18T00:16:45;96311.06;;;-2.80;85.71
13414;BME280;6778;48.136;11.386;2022-12-18T00:19:14;96330.06;;;-2.82;85.43
13414;BME280;6778;48.136;11.386;2022-12-18T00:21:43;96329.78;;;-2.90;85.69
13414;BME280;6778;48.136;11.386;2022-12-18T00:24:14;96333.00;;;-2.76;85.51
13414;BME280;6778;48.136;11.386;2022-12-18T00:26:44;96333.53;;;-2.83;85.76
13414;BME280;6778;48.136;11.386;2022-12-18T00:29:13;96341.06;;;-2.69;84.89
13414;BME280;6778;48.136;11.386;2022-12-18T00:31:43;96345.53;;;-2.60;84.23
13414;BME280;6778;48.136;11.386;2022-12-18T00:34:12;96344.44;;;-2.68;84.46
13414;BME280;6778;48.136;11.386;2022-12-18T00:36:42;96342.81;;;-2.69;84.61
13414;BME280;6778;48.136;11.386;2022-12-18T00:39:15;96343.75;;;-2.70;84.64
13414;BME280;6778;48.136;11.386;2022-12-18T00:41:44;96337.56;;;-2.68;84.74
13414;BME280;6778;48.136;11.386;2022-12-18T00:44:25;96338.13;;;-2.76;85.07
13414;BME280;6778;48.136;11.386;2022-12-18T00:46:53;96351.09;;;-2.66;84.69
13414;BME280;6778;48.136;11.386;2022-12-18T00:49:22;96344.38;;;-2.56;84.34
13414;BME280;6778;48.136;11.386;2022-12-18T00:51:50;96350.09;;;-2.52;83.96
13414;BME280;6778;48.136;11.386;2022-12-18T00:54:22;96348.63;;;-2.43;83.93
13414;BME280;6778;48.136;11.386;2022-12-18T00:56:50;96354.22;;;-2.38;83.44
13414;BME280;6778;48.136;11.386;2022-12-18T00:59:23;96368.69;;;-2.37;83.19
13414;BME280;6778;48.136;11.386;2022-12-18T01:01:52;96369.53;;;-2.61;83.92
13414;BME280;6778;48.136;11.386;2022-12-18T01:04:20;96377.38;;;-2.51;84.05
13414;BME280;6778;48.136;11.386;2022-12-18T01:06:49;96379.47;;;-2.56;84.08
13414;BME280;6778;48.136;11.386;2022-12-18T01:09:20;96376.25;;;-2.47;84.46
13414;BME280;6778;48.136;11.386;2022-12-18T01:11:49;96378.03;;;-2.36;83.56
13414;BME280;6778;48.136;11.386;2022-12-18T01:14:17;96388.06;;;-2.33;82.90
13414;BME280;6778;48.136;11.386;2022-12-18T01:16:46;96387.69;;;-2.40;83.25
13414;BME280;6778;48.136;11.386;2022-12-18T01:19:16;96393.88;;;-2.42;83.25
13414;BME280;6778;48.136;11.386;2022-12-18T01:21:46;96397.47;;;-2.45;83.28
13414;BME280;6778;48.136;11.386;2022-12-18T01:24:17;96387.94;;;-2.43;83.29
13414;BME280;6778;48.136;11.386;2022-12-18T01:26:48;96391.78;;;-2.37;83.02
13414;BME280;6778;48.136;11.386;2022-12-18T01:29:18;96390.13;;;-2.50;82.97
13414;BME280;6778;48.136;11.386;2022-12-18T01:31:48;96393.00;;;-2.54;83.53
13414;BME280;6778;48.136;11.386;2022-12-18T01:34:17;96403.56;;;-2.59;83.40
13414;BME280;6778;48.136;11.386;2022-12-18T01:36:45;96411.19;;;-2.57;83.47
13414;BME280;6778;48.136;11.386;2022-12-18T01:39:15;96407.75;;;-2.58;83.58
13414;BME280;6778;48.136;11.386;2022-12-18T01:41:44;96399.06;;;-2.55;83.45
13414;BME280;6778;48.136;11.386;2022-12-18T01:44:54;96401.00;;;-2.59;83.24
13414;BME280;6778;48.136;11.386;2022-12-18T01:47:27;96403.38;;;-2.56;82.94
13414;BME280;6778;48.136;11.386;2022-12-18T01:50:00;96409.09;;;-2.52;82.85
13414;BME280;6778;48.136;11.386;2022-12-18T01:52:33;96409.75;;;-2.61;82.72
13414;BME280;6778;48.136;11.386;2022-12-18T01:55:06;96415.56;;;-2.59;82.89
13414;BME280;6778;48.136;11.386;2022-12-18T01:57:37;96409.09;;;-2.76;83.39
13414;BME280;6778;48.136;11.386;2022-12-18T02:00:13;96406.28;;;-2.73;83.53
13414;BME280;6778;48.136;11.386;2022-12-18T02:02:44;96403.41;;;-2.68;83.56
13414;BME280;6778;48.136;11.386;2022-12-18T02:05:17;96399.41;;;-2.72;83.52
13414;BME280;6778;48.136;11.386;2022-12-18T02:08:00;96404.44;;;-2.71;83.37
13414;BME280;6778;48.136;11.386;2022-12-18T02:10:39;96397.09;;;-2.76;83.68
13414;BME280;6778;48.136;11.386;2022-12-18T02:13:17;96396.97;;;-2.74;83.48
13414;BME280;6778;48.136;11.386;2022-12-18T02:16:01;96397.13;;;-2.88;83.67
13414;BME280;6778;48.136;11.386;2022-12-18T02:18:38;96397.69;;;-2.85;83.87
13414;BME280;6778;48.136;11.386;2022-12-18T02:21:20;96395.91;;;-2.95;84.16
13414;BME280;6778;48.136;11.386;2022-12-18T02:24:13;96388.94;;;-3.06;84.90
13414;BME280;6778;48.136;11.386;2022-12-18T02:26:51;96404.84;;;-3.01;84.88
13414;BME280;6778;48.136;11.386;2022-12-18T02:29:27;96399.34;;;-3.20;85.11
13414;BME280;6778;48.136;11.386;2022-12-18T02:31:59;96408.59;;;-3.31;85.69
13414;BME280;6778;48.136;11.386;2022-12-18T02:34:31;96402.00;;;-3.22;85.95
13414;BME280;6778;48.136;11.386;2022-12-18T02:37:09;96398.63;;;-3.22;85.55
13414;BME280;6778;48.136;11.386;2022-12-18T02:39:42;96406.59;;;-3.14;85.12
13414;BME280;6778;48.136;11.386;2022-12-18T02:42:14;96394.53;;;-3.25;85.09
13414;BME280;6778;48.136;11.386;2022-12-18T02:44:47;96396.59;;;-3.43;85.97
13414;BME280;6778;48.136;11.386;2022-12-18T02:47:18;96401.09;;;-3.46;86.16
13414;BME280;6778;48.136;11.386;2022-12-18T02:49:59;96394.34;;;-3.47;86.38
13414;BME280;6778;48.136;11.386;2022-12-18T02:52:41;96410.75;;;-3.50;86.44
13414;BME280;6778;48.136;11.386;2022-12-18T02:55:40;96401.22;;;-3.48;86.63
13414;BME280;6778;48.136;11.386;2022-12-18T02:58:25;96405.00;;;-3.41;86.62
13414;BME280;6778;48.136;11.386;2022-12-18T03:01:01;96416.38;;;-3.45;86.74
13414;BME280;6778;48.136;11.386;2022-12-18T03:03:39;96414.00;;;-3.48;86.91
13414;BME280;6778;48.136;11.386;2022-12-18T03:06:21;96398.53;;;-3.46;87.03
13414;BME280;6778;48.136;11.386;2022-12-18T03:08:58;96408.78;;;-3.46;87.01
13414;BME280;6778;48.136;11.386;2022-12-18T03:11:33;96396.91;;;-3.35;86.59
13414;BME280;6778;48.136;11.386;2022-12-18T03:14:21;96389.31;;;-3.36;86.41
13414;BME280;6778;48.136;11.386;2022-12-18T03:16:57;96392.53;;;-3.58;87.20
13414;BME280;6778;48.136;11.386;2022-12-18T03:19:31;96391.78;;;-3.47;86.76
13414;BME280;6778;48.136;11.386;2022-12-18T03:22:03;96404.41;;;-3.57;87.17
13414;BME280;6778;48.136;11.386;2022-12-18T03:24:36;96403.25;;;-3.53;87.22
13414;BME280;6778;48.136;11.386;2022-12-18T03:27:13;96403.25;;;-3.53;87.63
13414;BME280;6778;48.136;11.386;2022-12-18T03:29:51;96402.03;;;-3.47;87.33
13414;BME280;6778;48.136;11.386;2022-12-18T03:32:27;96413.91;;;-3.59;87.40
13414;BME280;6778;48.136;11.386;2022-12-18T03:35:02;96404.59;;;-3.47;87.38
13414;BME280;6778;48.136;11.386;2022-12-18T03:37:33;96408.69;;;-3.45;87.00
13414;BME280;6778;48.136;11.386;2022-12-18T03:40:02;96407.97;;;-3.60;87.18
13414;BME280;6778;48.136;11.386;2022-12-18T03:42:38;96415.63;;;-3.47;86.70
13414;BME280;6778;48.136;11.386;2022-12-18T03:45:21;96414.81;;;-3.47;86.70
13414;BME280;6778;48.136;11.386;2022-12-18T03:48:00;96411.66;;;-3.51;87.24
13414;BME280;6778;48.136;11.386;2022-12-18T03:50:47;96409.09;;;-3.51;87.08
13414;BME280;6778;48.136;11.386;2022-12-18T03:53:29;96405.09;;;-3.42;86.90
13414;BME280;6778;48.136;11.386;2022-12-18T03:56:03;96411.75;;;-3.40;86.84
13414;BME280;6778;48.136;11.386;2022-12-18T03:58:35;96405.69;;;-3.39;86.85
13414;BME280;6778;48.136;11.386;2022-12-18T04:01:10;96406.09;;;-3.32;86.80
13414;BME280;6778;48.136;11.386;2022-12-18T04:03:44;96404.06;;;-3.27;86.44
13414;BME280;6778;48.136;11.386;2022-12-18T04:06:16;96413.47;;;-3.27;86.15
13414;BME280;6778;48.136;11.386;2022-12-18T04:08:45;96407.13;;;-3.35;85.82
13414;BME280;6778;48.136;11.386;2022-12-18T04:11:16;96410.31;;;-3.31;85.71
13414;BME280;6778;48.136;11.386;2022-12-18T04:13:44;96423.31;;;-3.34;85.81
13414;BME280;6778;48.136;11.386;2022-12-18T04:16:22;96428.84;;;-3.40;86.26
13414;BME280;6778;48.136;11.386;2022-12-18T04:18:50;96428.25;;;-3.44;86.41
13414;BME280;6778;48.136;11.386;2022-12-18T04:21:19;96420.47;;;-3.55;86.23
13414;BME280;6778;48.136;11.386;2022-12-18T04:23:48;96424.75;;;-3.68;87.11
13414;BME280;6778;48.136;11.386;2022-12-18T04:26:16;96426.41;;;-3.54;86.83
13414;BME280;6778;48.136;11.386;2022-12-18T04:28:45;96419.53;;;-3.67;87.37
13414;BME280;6778;48.136;11.386;2022-12-18T04:31:14;96419.75;;;-3.70;87.67
13414;BME280;6778;48.136;11.386;2022-12-18T04:33:45;96407.88;;;-3.58;87.61
13414;BME280;6778;48.136;11.386;2022-12-18T04:36:15;96421.78;;;-3.62;87.73
13414;BME280;6778;48.136;11.386;2022-12-18T04:38:44;96420.56;;;-3.69;87.79
13414;BME280;6778;48.136;11.386;2022-12-18T04:41:15;96427.63;;;-3.60;88.03
13414;BME280;6778;48.136;11.386;2022-12-18T04:43:44;96414.13;;;-3.37;87.45
13414;BME280;6778;48.136;11.386;2022-12-18T04:46:13;96426.19;;;-3.64;87.27
13414;BME280;6778;48.136;11.386;2022-12-18T04:48:44;96440.13;;;-3.55;87.51
13414;BME280;6778;48.136;11.386;2022-12-18T04:51:14;96441.88;;;-3.56;87.42
13414;BME280;6778;48.136;11.386;2022-12-18T04:53:42;96442.81;;;-3.44;87.34
13414;BME280;6778;48.136;11.386;2022-12-18T04:56:13;96444.31;;;-3.42;86.88
13414;BME280;6778;48.136;11.386;2022-12-18T04:58:44;96451.31;;;-3.31;86.54
13414;BME280;6778;48.136;11.386;2022-12-18T05:01:14;96457.31;;;-3.19;86.26
13414;BME280;6778;48.136;11.386;2022-12-18T05:03:45;96445.25;;;-3.17;85.50
13414;BME280;6778;48.136;11.386;2022-12-18T05:06:14;96436.41;;;-3.13;85.25
13414;BME280;6778;48.136;11.386;2022-12-18T05:08:42;96441.94;;;-3.07;85.12
13414;BME280;6778;48.136;11.386;2022-12-18T05:11:13;96457.84;;;-3.40;86.20
13414;BME280;6778;48.136;11.386;2022-12-18T05:13:43;96451.09;;;-3.41;86.38
13414;BME280;6778;48.136;11.386;2022-12-18T05:16:13;96457.03;;;-3.27;86.06
13414;BME280;6778;48.136;11.386;2022-12-18T05:18:45;96459.78;;;-3.43;86.09
13414;BME280;6778;48.136;11.386;2022-12-18T05:21:15;96450.06;;;-3.64;86.58
13414;BME280;6778;48.136;11.386;2022-12-18T05:23:45;96445.75;;;-3.76;87.29
13414;BME280;6778;48.136;11.386;2022-12-18T05:26:17;96455.34;;;-3.79;87.56
13414;BME280;6778;48.136;11.386;2022-12-18T05:28:46;96458.94;;;-3.82;87.95
13414;BME280;6778;48.136;11.386;2022-12-18T05:31:15;96466.09;;;-3.74;87.86
13414;BME280;6778;48.136;11.386;2022-12-18T05:33:46;96471.53;;;-3.79;87.56
13414;BME280;6778;48.136;11.386;2022-12-18T05:36:14;96473.06;;;-3.76;87.47
13414;BME280;6778;48.136;11.386;2022-12-18T05:38:43;96477.47;;;-3.78;87.97
13414;BME280;6778;48.136;11.386;2022-12-18T05:41:14;96468.56;;;-3.73;87.81
13414;BME280;6778;48.136;11.386;2022-12-18T05:43:42;96472.28;;;-3.64;87.42
13414;BME280;6778;48.136;11.386;2022-12-18T05:46:14;96464.59;;;-3.64;87.38
13414;BME280;6778;48.136;11.386;2022-12-18T05:48:46;96473.78;;;-3.74;87.36
13414;BME280;6778;48.136;11.386;2022-12-18T05:51:18;96466.84;;;-3.72;87.45
13414;BME280;6778;48.136;11.386;2022-12-18T05:53:48;96468.47;;;-3.71;87.64
13414;BME280;6778;48.136;11.386;2022-12-18T05:56:18;96483.22;;;-3.62;87.20
13414;BME280;6778;48.136;11.386;2022-12-18T05:58:50;96469.31;;;-3.58;87.17
13414;BME280;6778;48.136;11.386;2022-12-18T06:01:22;96481.50;;;-3.49;87.04
13414;BME280;6778;48.136;11.386;2022-12-18T06:03:55;96481.00;;;-3.28;86.22
13414;BME280;6778;48.136;11.386;2022-12-18T06:06:25;96481.41;;;-3.22;86.17
13414;BME280;6778;48.136;11.386;2022-12-18T06:08:56;96477.63;;;-3.29;85.58
13414;BME280;6778;48.136;11.386;2022-12-18T06:11:27;96472.19;;;-3.24;85.67
13414;BME280;6778;48.136;11.386;2022-12-18T06:13:56;96473.63;;;-3.33;85.42
13414;BME280;6778;48.136;11.386;2022-12-18T06:16:25;96470.13;;;-3.32;85.77
13414;BME280;6778;48.136;11.386;2022-12-18T06:18:59;96467.91;;;-3.24;85.61
13414;BME280;6778;48.136;11.386;2022-12-18T06:21:32;96483.97;;;-3.22;85.57
13414;BME280;6778;48.136;11.386;2022-12-18T06:24:00;96484.59;;;-3.18;85.36
13414;BME280;6778;48.136;11.386;2022-12-18T06:26:29;96482.00;;;-3.06;85.26
13414;BME280;6778;48.136;11.386;2022-12-18T06:28:58;96486.63;;;-2.98;84.36
13414;BME280;6778;48.136;11.386;2022-12-18T06:31:26;96488.78;;;-3.05;84.27
13414;BME280;6778;48.136;11.386;2022-12-18T06:34:02;96497.81;;;-3.24;84.02
13414;BME280;6778;48.136;11.386;2022-12-18T06:36:31;96504.75;;;-3.26;84.37
13414;BME280;6778;48.136;11.386;2022-12-18T06:39:00;96510.31;;;-3.45;84.82
13414;BME280;6778;48.136;11.386;2022-12-18T06:41:28;96500.53;;;-3.53;85.24
13414;BME280;6778;48.136;11.386;2022-12-18T06:43:57;96505.06;;;-3.57;85.43
13414;BME280;6778;48.136;11.386;2022-12-18T06:46:28;96509.13;;;-3.67;86.08
13414;BME280;6778;48.136;11.386;2022-12-18T06:49:02;96509.94;;;-3.79;86.55
13414;BME280;6778;48.136;11.386;2022-12-18T06:51:33;96518.47;;;-3.53;86.47
13414;BME280;6778;48.136;11.386;2022-12-18T06:54:04;96511.59;;;-3.65;86.22
13414;BME280;6778;48.136;11.386;2022-12-18T06:56:34;96520.84;;;-3.50;85.97
13414;BME280;6778;48.136;11.386;2022-12-18T06:59:04;96521.03;;;-3.66;85.61
13414;BME280;6778;48.136;11.386;2022-12-18T07:01:32;96527.63;;;-3.76;85.47
13414;BME280;6778;48.136;11.386;2022-12-18T07:04:04;96522.81;;;-3.80;85.53
13414;BME280;6778;48.136;11.386;2022-12-18T07:06:33;96528.53;;;-3.90;86.42
13414;BME280;6778;48.136;11.386;2022-12-18T07:09:01;96522.19;;;-3.84;86.65
13414;BME280;6778;48.136;11.386;2022-12-18T07:11:33;96534.59;;;-3.78;86.24
13414;BME280;6778;48.136;11.386;2022-12-18T07:14:02;96545.75;;;-3.66;85.98
13414;BME280;6778;48.136;11.386;2022-12-18T07:16:30;96553.81;;;-3.45;85.92
13414;BME280;6778;48.136;11.386;2022-12-18T07:18:59;96543.16;;;-3.39;85.08
13414;BME280;6778;48.136;11.386;2022-12-18T07:21:30;96547.38;;;-3.25;84.83
13414;BME280;6778;48.136;11.386;2022-12-18T07:23:58;96550.69;;;-3.11;84.73
13414;BME280;6778;48.136;11.386;2022-12-18T07:26:27;96548.44;;;-3.03;84.33
13414;BME280;6778;48.136;11.386;2022-12-18T07:28:57;96554.28;;;-3.00;83.38
13414;BME280;6778;48.136;11.386;2022-12-18T07:31:27;96556.66;;;-2.97;82.62
13414;BME280;6778;48.136;11.386;2022-12-18T07:33:55;96541.53;;;-3.27;82.59
13414;BME280;6778;48.136;11.386;2022-12-18T07:36:24;96542.41;;;-3.54;83.58
13414;BME280;6778;48.136;11.386;2022-12-18T07:38:55;96546.03;;;-3.44;84.07
13414;BME280;6778;48.136;11.386;2022-12-18T07:41:24;96543.84;;;-3.63;84.76
13414;BME280;6778;48.136;11.386;2022-12-18T07:43:53;96543.41;;;-3.69;84.96
13414;BME280;6778;48.136;11.386;2022-12-18T07:46:21;96545.13;;;-3.82;85.40
13414;BME280;6778;48.136;11.386;2022-12-18T07:48:50;96554.56;;;-3.70;85.09
13414;BME280;6778;48.136;11.386;2022-12-18T07:51:19;96549.47;;;-3.70;85.50
13414;BME280;6778;48.136;11.386;2022-12-18T07:53:47;96554.69;;;-3.59;85.12
13414;BME280;6778;48.136;11.386;2022-12-18T07:56:21;96555.69;;;-3.74;84.95
13414;BME280;6778;48.136;11.386;2022-12-18T07:58:49;96556.38;;;-3.85;85.76
13414;BME280;6778;48.136;11.386;2022-12-18T08:01:18;96560.81;;;-3.74;86.13
13414;BME280;6778;48.136;11.386;2022-12-18T08:03:46;96566.34;;;-3.68;85.43
13414;BME280;6778;48.136;11.386;2022-12-18T08:06:19;96567.97;;;-3.67;85.40
13414;BME280;6778;48.136;11.386;2022-12-18T08:08:47;96567.09;;;-3.66;84.77
13414;BME280;6778;48.136;11.386;2022-12-18T08:11:19;96570.47;;;-3.52;85.11
13414;BME280;6778;48.136;11.386;2022-12-18T08:13:48;96569.94;;;-3.31;84.63
13414;BME280;6778;48.136;11.386;2022-12-18T08:16:18;96571.38;;;-3.14;83.97
13414;BME280;6778;48.136;11.386;2022-12-18T08:18:47;96582.56;;;-3.02;82.70
13414;BME280;6778;48.136;11.386;2022-12-18T08:21:17;96585.53;;;-3.08;82.61
13414;BME280;6778;48.136;11.386;2022-12-18T08:23:46;96582.97;;;-3.08;83.01
13414;BME280;6778;48.136;11.386;2022-12-18T08:26:18;96578.13;;;-3.13;82.96
13414;BME280;6778;48.136;11.386;2022-12-18T08:28:48;96571.28;;;-2.74;84.14
13414;BME280;6778;48.136;11.386;2022-12-18T08:31:19;96573.44;;;-2.55;82.50
13414;BME280;6778;48.136;11.386;2022-12-18T08:33:51;96573.41;;;-2.42;81.67
13414;BME280;6778;48.136;11.386;2022-12-18T08:36:20;96571.25;;;-2.36;80.81
13414;BME280;6778;48.136;11.386;2022-12-18T08:38:49;96570.25;;;-2.09;81.56
13414;BME280;6778;48.136;11.386;2022-12-18T08:41:20;96580.88;;;-2.27;79.13
13414;BME280;6778;48.136;11.386;2022-12-18T08:43:49;96580.34;;;-2.32;78.82
13414;BME280;6778;48.136;11.386;2022-12-18T08:46:34;96573.16;;;-2.27;79.06
13414;BME280;6778;48.136;11.386;2022-12-18T08:49:04;96581.03;;;-2.17;78.81
13414;BME280;6778;48.136;11.386;2022-12-18T08:51:33;96582.47;;;-2.62;79.05
13414;BME280;6778;48.136;11.386;2022-12-18T08:54:03;96569.94;;;-2.54;79.25
13414;BME280;6778;48.136;11.386;2022-12-18T08:56:36;96577.50;;;-2.53;79.45
13414;BME280;6778;48.136;11.386;2022-12-18T08:59:04;96589.41;;;-2.52;78.87
13414;BME280;6778;48.136;11.386;2022-12-18T09:01:33;96593.13;;;-2.68;79.07
13414;BME280;6778;48.136;11.386;2022-12-18T09:04:02;96598.25;;;-2.68;79.02
13414;BME280;6778;48.136;11.386;2022-12-18T09:06:30;96600.13;;;-2.70;79.51
13414;BME280;6778;48.136;11.386;2022-12-18T09:08:59;96593.53;;;-2.75;79.47
13414;BME280;6778;48.136;11.386;2022-12-18T09:11:28;96603.38;;;-2.94;79.85
13414;BME280;6778;48.136;11.386;2022-12-18T09:14:01;96597.22;;;-2.91;80.08
13414;BME280;6778;48.136;11.386;2022-12-18T09:16:30;96604.19;;;-2.81;80.01
13414;BME280;6778;48.136;11.386;2022-12-18T09:29:24;96591.50;;;-2.57;79.49
13414;BME280;6778;48.136;11.386;2022-12-18T09:31:52;96592.59;;;-2.73;79.23
13414;BME280;6778;48.136;11.386;2022-12-18T09:34:21;96588.00;;;-2.68;78.54
13414;BME280;6778;48.136;11.386;2022-12-18T09:36:50;96590.97;;;-2.75;79.33
13414;BME280;6778;48.136;11.386;2022-12-18T09:39:19;96589.75;;;-2.69;79.02
13414;BME280;6778;48.136;11.386;2022-12-18T09:41:51;96591.09;;;-2.76;79.17
13414;BME280;6778;48.136;11.386;2022-12-18T09:44:27;96587.28;;;-2.83;79.97
13414;BME280;6778;48.136;11.386;2022-12-18T09:47:10;96586.25;;;-2.68;79.28
13414;BME280;6778;48.136;11.386;2022-12-18T09:49:43;96584.00;;;-2.72;79.55
13414;BME280;6778;48.136;11.386;2022-12-18T09:52:17;96581.94;;;-2.67;78.90
13414;BME280;6778;48.136;11.386;2022-12-18T09:54:53;96586.13;;;-2.54;78.84
13414;BME280;6778;48.136;11.386;2022-12-18T10:02:31;96579.91;;;-2.75;78.82
13414;BME280;6778;48.136;11.386;2022-12-18T10:05:06;96580.81;;;-2.76;79.08
13414;BME280;6778;48.136;11.386;2022-12-18T10:07:53;96577.13;;;-2.85;79.19
13414;BME280;6778;48.136;11.386;2022-12-18T10:10:32;96580.13;;;-2.91;79.39
13414;BME280;6778;48.136;11.386;2022-12-18T10:13:13;96578.56;;;-2.81;78.84
13414;BME280;6778;48.136;11.386;2022-12-18T10:15:56;96569.53;;;-2.86;79.25
13414;BME280;6778;48.136;11.386;2022-12-18T10:18:45;96567.19;;;-3.02;79.85
13414;BME280;6778;48.136;11.386;2022-12-18T10:21:23;96568.00;;;-2.89;79.80
13414;BME280;6778;48.136;11.386;2022-12-18T10:24:02;96558.56;;;-2.76;79.40
13414;BME280;6778;48.136;11.386;2022-12-18T10:26:34;96545.94;;;-2.53;78.79
13414;BME280;6778;48.136;11.386;2022-12-18T10:29:10;96545.41;;;-2.58;78.58
13414;BME280;6778;48.136;11.386;2022-12-18T10:31:39;96540.16;;;-2.44;78.59
13414;BME280;6778;48.136;11.386;2022-12-18T10:34:12;96537.16;;;-2.38;78.23
13414;BME280;6778;48.136;11.386;2022-12-18T10:36:42;96530.28;;;-2.37;77.71
13414;BME280;6778;48.136;11.386;2022-12-18T10:39:15;96532.13;;;-2.27;77.81
13414;BME280;6778;48.136;11.386;2022-12-18T10:41:44;96537.97;;;-2.37;78.03
13414;BME280;6778;48.136;11.386;2022-12-18T10:44:17;96543.47;;;-2.18;77.38
13414;BME280;6778;48.136;11.386;2022-12-18T10:46:49;96541.91;;;-2.08;77.35
13414;BME280;6778;48.136;11.386;2022-12-18T10:49:27;96537.59;;;-2.07;76.59
13414;BME280;6778;48.136;11.386;2022-12-18T10:52:07;96535.97;;;-2.08;77.09
13414;BME280;6778;48.136;11.386;2022-12-18T10:54:48;96541.44;;;-2.26;76.47
13414;BME280;6778;48.136;11.386;2022-12-18T10:57:31;96540.09;;;-2.18;76.04
13414;BME280;6778;48.136;11.386;2022-12-18T11:00:23;96548.19;;;-2.12;76.50
13414;BME280;6778;48.136;11.386;2022-12-18T11:02:55;96553.97;;;-1.97;76.95
13414;BME280;6778;48.136;11.386;2022-12-18T11:05:31;96542.13;;;-1.87;76.20
13414;BME280;6778;48.136;11.386;2022-12-18T11:08:03;96553.09;;;-1.85;76.35
13414;BME280;6778;48.136;11.386;2022-12-18T11:10:33;96555.19;;;-1.90;76.22
13414;BME280;6778;48.136;11.386;2022-12-18T11:13:17;96569.13;;;-1.81;76.12
13414;BME280;6778;48.136;11.386;2022-12-18T11:15:47;96566.97;;;-1.63;75.63
13414;BME280;6778;48.136;11.386;2022-12-18T11:18:19;96561.34;;;-1.45;75.18
13414;BME280;6778;48.136;11.386;2022-12-18T11:20:56;96564.78;;;-1.33;74.15
13414;BME280;6778;48.136;11.386;2022-12-18T11:23:27;96559.19;;;-1.27;74.40
13414;BME280;6778;48.136;11.386;2022-12-18T11:25:58;96555.47;;;-1.12;73.73
13414;BME280;6778;48.136;11.386;2022-12-18T11:28:38;96544.75;;;-1.05;73.12
13414;BME280;6778;48.136;11.386;2022-12-18T11:31:21;96550.47;;;-1.02;72.84
13414;BME280;6778;48.136;11.386;2022-12-18T11:34:00;96542.25;;;-1.18;73.22
13414;BME280;6778;48.136;11.386;2022-12-18T11:36:46;96539.03;;;-1.44;73.65
13414;BME280;6778;48.136;11.386;2022-12-18T11:39:20;96541.34;;;-1.52;74.25
13414;BME280;6778;48.136;11.386;2022-12-18T11:41:57;96533.25;;;-1.35;74.61
13414;BME280;6778;48.136;11.386;2022-12-18T11:44:44;96530.00;;;-1.15;74.37
13414;BME280;6778;48.136;11.386;2022-12-18T11:47:24;96536.06;;;-1.27;73.28
13414;BME280;6778;48.136;11.386;2022-12-18T11:49:55;96535.59;;;-1.21;73.94
13414;BME280;6778;48.136;11.386;2022-12-18T11:52:36;96534.56;;;-1.18;72.91
13414;BME280;6778;48.136;11.386;2022-12-18T11:55:12;96529.47;;;-0.85;74.68
13414;BME280;6778;48.136;11.386;2022-12-18T11:57:49;96514.63;;;-0.81;72.19
13414;BME280;6778;48.136;11.386;2022-12-18T12:00:20;96511.09;;;-1.14;71.65
13414;BME280;6778;48.136;11.386;2022-12-18T12:03:12;96515.25;;;-1.24;72.42
13414;BME280;6778;48.136;11.386;2022-12-18T12:06:01;96516.03;;;-1.46;72.96
13414;BME280;6778;48.136;11.386;2022-12-18T12:08:50;96518.97;;;-1.39;73.30
13414;BME280;6778;48.136;11.386;2022-12-18T12:11:30;96521.22;;;-1.34;73.19
13414;BME280;6778;48.136;11.386;2022-12-18T12:14:17;96512.69;;;-1.24;72.83
13414;BME280;6778;48.136;11.386;2022-12-18T12:16:57;96511.91;;;-1.59;73.63
13414;BME280;6778;48.136;11.386;2022-12-18T12:19:39;96515.84;;;-1.67;73.73
13414;BME280;6778;48.136;11.386;2022-12-18T12:22:20;96522.03;;;-1.69;74.05
13414;BME280;6778;48.136;11.386;2022-12-18T12:25:07;96509.41;;;-1.72;74.32
13414;BME280;6778;48.136;11.386;2022-12-18T12:27:47;96512.53;;;-1.80;74.41
13414;BME280;6778;48.136;11.386;2022-12-18T12:30:24;96510.47;;;-1.75;74.20
13414;BME280;6778;48.136;11.386;2022-12-18T12:33:13;96502.06;;;-1.66;74.39
13414;BME280;6778;48.136;11.386;2022-12-18T12:35:55;96499.38;;;-1.64;75.00
13414;BME280;6778;48.136;11.386;2022-12-18T12:38:35;96501.13;;;-1.65;74.60
13414;BME280;6778;48.136;11.386;2022-12-18T12:41:12;96507.47;;;-1.57;74.26
13414;BME280;6778;48.136;11.386;2022-12-18T12:43:58;96504.53;;;-1.64;74.32
13414;BME280;6778;48.136;11.386;2022-12-18T12:46:34;96503.88;;;-1.44;73.89
13414;BME280;6778;48.136;11.386;2022-12-18T12:49:13;96507.44;;;-1.33;73.54
13414;BME280;6778;48.136;11.386;2022-12-18T12:51:47;96502.56;;;-1.49;73.76
13414;BME280;6778;48.136;11.386;2022-12-18T12:54:23;96499.72;;;-1.33;74.24
13414;BME280;6778;48.136;11.386;2022-12-18T12:57:02;96504.78;;;-1.21;74.63
13414;BME280;6778;48.136;11.386;2022-12-18T12:59:44;96510.19;;;-1.01;72.85
13414;BME280;6778;48.136;11.386;2022-12-18T13:02:22;96501.75;;;-0.92;71.69
13414;BME280;6778;48.136;11.386;2022-12-18T13:05:00;96504.78;;;-0.98;71.76
13414;BME280;6778;48.136;11.386;2022-12-18T13:07:37;96509.34;;;-1.13;71.57
13414;BME280;6778;48.136;11.386;2022-12-18T13:10:23;96505.75;;;-1.46;73.02
13414;BME280;6778;48.136;11.386;2022-12-18T13:12:57;96514.75;;;-1.40;72.91
13414;BME280;6778;48.136;11.386;2022-12-18T13:15:29;96518.41;;;-1.67;73.35
13414;BME280;6778;48.136;11.386;2022-12-18T13:18:11;96525.47;;;-2.05;74.79
13414;BME280;6778;48.136;11.386;2022-12-18T13:20:44;96528.31;;;-1.97;75.25
13414;BME280;6778;48.136;11.386;2022-12-18T13:23:33;96507.28;;;-1.78;75.03
13414;BME280;6778;48.136;11.386;2022-12-18T13:26:28;96505.94;;;-1.60;74.53
13414;BME280;6778;48.136;11.386;2022-12-18T13:29:00;96511.09;;;-1.60;73.96
13414;BME280;6778;48.136;11.386;2022-12-18T13:34:36;96514.94;;;-1.89;74.90
13414;BME280;6778;48.136;11.386;2022-12-18T13:43:27;96504.66;;;-2.13;76.75
13414;BME280;6778;48.136;11.386;2022-12-18T13:46:05;96502.38;;;-2.29;77.41
13414;BME280;6778;48.136;11.386;2022-12-18T13:48:37;96496.81;;;-2.23;77.74
13414;BME280;6778;48.136;11.386;2022-12-18T13:51:10;96498.09;;;-2.17;77.67
13414;BME280;6778;48.136;11.386;2022-12-18T13:53:44;96499.97;;;-2.20;77.61
13414;BME280;6778;48.136;11.386;2022-12-18T13:56:17;96499.41;;;-2.36;78.31
13414;BME280;6778;48.136;11.386;2022-12-18T13:58:45;96499.22;;;-2.45;78.84